createdAt,value
2023-03-26T00:00:54.010Z,14.23
2023-03-26T00:03:20.442Z,9.52
2023-03-26T00:05:48.139Z,15.63
2023-03-26T00:08:16.905Z,12.30
2023-03-26T00:10:44.129Z,12.43
2023-03-26T00:13:10.886Z,10.67
2023-03-26T00:15:37.672Z,13.75
2023-03-26T00:18:04.170Z,12.77
2023-03-26T00:20:32.746Z,12.23
2023-03-26T00:23:01.490Z,8.15
2023-03-26T00:25:28.382Z,10.03
2023-03-26T00:27:54.743Z,18.83
2023-03-26T00:30:21.364Z,12.27
2023-03-26T00:32:53.354Z,10.23
2023-03-26T00:35:20.705Z,11.23
2023-03-26T00:37:47.070Z,8.90
2023-03-26T00:40:13.645Z,12.27
2023-03-26T00:42:39.982Z,8.02
2023-03-26T00:45:07.367Z,9.68
2023-03-26T00:47:34.518Z,8.02
2023-03-26T00:50:01.426Z,14.63
2023-03-26T00:52:28.664Z,10.02
2023-03-26T00:54:55.801Z,12.05
2023-03-26T00:57:34.645Z,7.15
2023-03-26T01:00:15.780Z,4.85
2023-03-26T01:02:45.080Z,12.87
2023-03-26T01:05:36.266Z,13.40
2023-03-26T01:08:15.110Z,8.65
2023-03-26T01:10:43.446Z,13.50
2023-03-26T01:13:10.011Z,9.77
2023-03-26T01:15:37.340Z,11.93
2023-03-26T01:18:09.770Z,12.07
2023-03-26T01:20:46.520Z,20.02
2023-03-26T01:23:20.253Z,10.85
2023-03-26T01:25:57.759Z,14.45
2023-03-26T01:28:30.671Z,8.97
2023-03-26T01:31:09.976Z,11.65
2023-03-26T01:33:46.802Z,13.05
2023-03-26T01:36:29.097Z,15.50
2023-03-26T01:39:07.942Z,7.35
2023-03-26T01:41:47.208Z,22.10
2023-03-26T01:44:28.807Z,14.43
2023-03-26T01:46:55.606Z,20.98
2023-03-26T01:49:22.052Z,11.30
2023-03-26T01:51:48.687Z,15.10
2023-03-26T01:54:19.604Z,21.30
2023-03-26T01:57:07.467Z,21.90
2023-03-26T01:59:48.303Z,17.83
2023-03-26T02:02:33.084Z,25.15
2023-03-26T02:05:17.392Z,26.27
2023-03-26T02:07:55.888Z,20.20
2023-03-26T02:10:30.770Z,17.30
2023-03-26T02:12:58.873Z,18.40
2023-03-26T02:15:25.492Z,14.73
2023-03-26T02:17:52.869Z,20.25
2023-03-26T02:20:20.483Z,22.93
2023-03-26T02:22:48.205Z,11.18
2023-03-26T02:25:17.664Z,12.90
2023-03-26T02:27:45.139Z,15.90
2023-03-26T02:30:15.674Z,17.50
2023-03-26T02:32:43.750Z,14.57
2023-03-26T02:35:11.896Z,10.95
2023-03-26T02:37:39.059Z,16.95
2023-03-26T02:40:11.016Z,18.60
2023-03-26T02:42:38.309Z,18.17
2023-03-26T02:45:06.682Z,13.67
2023-03-26T02:47:33.831Z,14.88
2023-03-26T02:50:01.337Z,10.88
2023-03-26T02:52:27.668Z,19.17
2023-03-26T02:54:54.115Z,20.98
2023-03-26T02:57:20.839Z,29.13
2023-03-26T02:59:47.176Z,30.63
2023-03-26T03:02:14.557Z,28.25
2023-03-26T03:04:41.010Z,26.02
2023-03-26T03:07:07.645Z,35.65
2023-03-26T03:09:34.659Z,23.67
2023-03-26T03:12:01.015Z,21.75
2023-03-26T03:14:27.323Z,17.80
2023-03-26T03:16:53.834Z,24.55
2023-03-26T03:19:20.530Z,24.75
2023-03-26T03:21:46.842Z,25.07
2023-03-26T03:24:13.861Z,21.63
2023-03-26T03:26:42.171Z,33.67
2023-03-26T03:29:09.238Z,34.33
2023-03-26T03:31:35.842Z,18.42
2023-03-26T03:34:02.192Z,33.00
2023-03-26T03:36:30.268Z,26.10
2023-03-26T03:39:02.138Z,31.25
2023-03-26T03:41:29.333Z,32.28
2023-03-26T03:43:55.715Z,25.48
2023-03-26T03:46:22.080Z,33.67
2023-03-26T03:48:49.736Z,27.60
2023-03-26T03:51:18.077Z,22.77
2023-03-26T03:53:45.935Z,34.55
2023-03-26T03:56:14.447Z,35.03
2023-03-26T03:58:41.585Z,42.40
2023-03-26T04:01:07.983Z,21.33
2023-03-26T04:03:38.521Z,27.67
2023-03-26T04:06:06.846Z,34.28
2023-03-26T04:08:34.903Z,24.67
2023-03-26T04:11:02.258Z,21.50
2023-03-26T04:13:28.670Z,26.17
2023-03-26T04:15:56.073Z,38.63
2023-03-26T04:18:23.250Z,23.83
2023-03-26T04:20:49.752Z,26.73
2023-03-26T04:23:18.307Z,30.53
2023-03-26T04:25:49.179Z,24.80
2023-03-26T04:28:42.242Z,22.98
2023-03-26T04:31:13.738Z,25.50
2023-03-26T04:33:40.190Z,22.30
2023-03-26T04:36:07.242Z,37.50
2023-03-26T04:38:41.127Z,27.80
2023-03-26T04:41:07.775Z,29.10
2023-03-26T04:43:42.156Z,31.20
2023-03-26T04:46:10.419Z,26.15
2023-03-26T04:48:38.618Z,31.93
2023-03-26T04:51:09.797Z,27.15
2023-03-26T04:53:36.636Z,25.30
2023-03-26T04:56:11.991Z,23.63
2023-03-26T04:58:39.774Z,22.00
2023-03-26T05:01:10.176Z,27.57
2023-03-26T05:03:40.654Z,23.40
2023-03-26T05:06:07.401Z,27.58
2023-03-26T05:08:33.753Z,31.05
2023-03-26T05:11:00.234Z,35.22
2023-03-26T05:13:26.560Z,25.77
2023-03-26T05:15:52.925Z,25.23
2023-03-26T05:18:19.315Z,27.90
2023-03-26T05:20:46.390Z,26.05
2023-03-26T05:23:12.846Z,23.48
2023-03-26T05:25:39.221Z,28.57
2023-03-26T05:28:05.677Z,35.67
2023-03-26T05:30:32.159Z,29.48
2023-03-26T05:32:58.580Z,25.02
2023-03-26T05:35:25.027Z,24.67
2023-03-26T05:37:51.474Z,21.90
2023-03-26T05:40:17.988Z,29.08
2023-03-26T05:42:45.287Z,21.60
2023-03-26T05:45:13.777Z,33.72
2023-03-26T05:47:40.292Z,33.25
2023-03-26T05:50:08.214Z,25.50
2023-03-26T05:52:34.636Z,27.23
2023-03-26T05:55:01.084Z,23.50
2023-03-26T05:57:30.257Z,21.77
2023-03-26T05:59:56.596Z,31.23
2023-03-26T06:02:23.680Z,23.37
2023-03-26T06:04:50.783Z,23.92
2023-03-26T06:07:18.073Z,23.10
2023-03-26T06:09:45.066Z,24.15
2023-03-26T06:12:11.800Z,28.00
2023-03-26T06:14:38.221Z,31.53
2023-03-26T06:17:04.601Z,23.88
2023-03-26T06:19:30.915Z,28.05
2023-03-26T06:21:57.317Z,42.17
2023-03-26T06:24:23.736Z,31.75
2023-03-26T06:26:50.100Z,27.63
2023-03-26T06:29:16.506Z,26.42
2023-03-26T06:31:42.910Z,33.40
2023-03-26T06:34:09.306Z,29.65
2023-03-26T06:36:35.723Z,28.35
2023-03-26T06:39:02.214Z,25.33
2023-03-26T06:41:35.132Z,26.10
2023-03-26T06:44:01.518Z,26.25
2023-03-26T06:46:27.997Z,23.13
2023-03-26T06:48:54.382Z,26.17
2023-03-26T06:51:20.888Z,29.63
2023-03-26T06:53:47.292Z,25.40
2023-03-26T06:56:13.606Z,21.05
2023-03-26T06:58:39.934Z,25.25
2023-03-26T07:01:06.598Z,28.10
2023-03-26T07:03:33.031Z,20.50
2023-03-26T07:05:59.403Z,20.67
2023-03-26T07:08:26.536Z,23.77
2023-03-26T07:10:53.194Z,22.08
2023-03-26T07:13:19.784Z,25.80
2023-03-26T07:15:48.831Z,24.23
2023-03-26T07:18:15.524Z,24.80
2023-03-26T07:20:43.557Z,24.92
2023-03-26T07:23:11.581Z,22.00
2023-03-26T07:25:38.398Z,30.23
2023-03-26T07:28:24.386Z,24.77
2023-03-26T07:30:53.664Z,21.73
2023-03-26T07:33:45.514Z,20.58
2023-03-26T07:36:32.647Z,22.00
2023-03-26T07:39:11.017Z,25.50
2023-03-26T07:41:43.866Z,26.53
2023-03-26T07:44:22.437Z,34.90
2023-03-26T07:46:49.303Z,23.65
2023-03-26T07:49:17.759Z,26.00
2023-03-26T07:51:44.378Z,28.75
2023-03-26T07:54:11.138Z,19.87
2023-03-26T07:56:48.994Z,29.80
2023-03-26T07:59:26.737Z,26.70
2023-03-26T08:02:13.927Z,24.52
2023-03-26T08:04:40.467Z,27.70
2023-03-26T08:07:34.875Z,32.13
2023-03-26T08:10:04.192Z,30.38
2023-03-26T08:12:46.091Z,24.23
2023-03-26T08:15:29.518Z,26.10
2023-03-26T08:18:19.354Z,24.85
2023-03-26T08:20:49.287Z,32.87
2023-03-26T08:23:27.644Z,27.08
2023-03-26T08:26:19.076Z,22.30
2023-03-26T08:28:50.647Z,27.67
2023-03-26T08:31:19.431Z,27.95
2023-03-26T08:33:45.874Z,25.30
2023-03-26T08:36:12.256Z,24.95
2023-03-26T08:38:38.584Z,53.35
2023-03-26T08:41:24.827Z,35.25
2023-03-26T08:44:06.113Z,33.58
2023-03-26T08:46:38.038Z,23.93
2023-03-26T08:49:42.664Z,22.63
2023-03-26T08:52:49.232Z,27.58
2023-03-26T08:55:43.612Z,23.38
2023-03-26T08:58:43.544Z,21.83
2023-03-26T09:01:12.361Z,21.67
2023-03-26T09:04:12.220Z,26.13
2023-03-26T09:06:50.764Z,28.75
2023-03-26T09:09:29.889Z,28.40
2023-03-26T09:12:18.063Z,30.00
2023-03-26T09:14:53.622Z,31.90
2023-03-26T09:18:03.030Z,28.52
2023-03-26T09:20:38.536Z,32.38
2023-03-26T09:23:07.788Z,28.73
2023-03-26T09:25:56.102Z,26.98
2023-03-26T09:28:44.488Z,30.60
2023-03-26T09:31:32.858Z,24.13
2023-03-26T09:34:29.857Z,23.17
2023-03-26T09:37:24.491Z,21.38
2023-03-26T09:40:15.138Z,22.42
2023-03-26T09:43:00.931Z,25.43
2023-03-26T09:45:52.639Z,28.13
2023-03-26T09:48:48.347Z,25.23
2023-03-26T09:51:40.258Z,26.02
2023-03-26T09:54:44.554Z,27.92
2023-03-26T09:57:36.038Z,22.70
2023-03-26T10:00:23.977Z,24.83
2023-03-26T10:03:08.299Z,23.65
2023-03-26T10:06:11.832Z,17.83
2023-03-26T10:08:41.320Z,18.02
2023-03-26T10:11:18.812Z,20.10
2023-03-26T10:14:03.749Z,18.48
2023-03-26T10:16:42.526Z,12.48
2023-03-26T10:19:29.367Z,15.55
2023-03-26T10:22:09.195Z,11.57
2023-03-26T10:25:10.710Z,15.03
2023-03-26T10:28:07.194Z,14.38
2023-03-26T10:30:54.715Z,12.63
2023-03-26T10:33:46.328Z,12.85
2023-03-26T10:36:33.511Z,14.05
2023-03-26T10:39:37.055Z,11.20
2023-03-26T10:42:43.396Z,12.27
2023-03-26T10:45:25.617Z,8.73
2023-03-26T10:48:19.572Z,10.73
2023-03-26T10:50:51.816Z,8.35
2023-03-26T10:53:51.331Z,15.17
2023-03-26T10:56:30.067Z,8.90
2023-03-26T10:58:56.965Z,11.80
2023-03-26T11:02:01.662Z,8.50
2023-03-26T11:04:54.451Z,12.65
2023-03-26T11:07:43.991Z,7.93
2023-03-26T11:10:48.190Z,7.95
2023-03-26T11:13:42.625Z,7.00
2023-03-26T11:16:20.575Z,11.57
2023-03-26T11:19:05.886Z,7.97
2023-03-26T11:21:58.283Z,7.83
2023-03-26T11:24:54.132Z,11.10
2023-03-26T11:27:47.891Z,13.65
2023-03-26T11:30:48.433Z,10.93
2023-03-26T11:33:25.954Z,10.82
2023-03-26T11:36:06.485Z,10.07
2023-03-26T11:38:45.717Z,10.98
2023-03-26T11:41:22.505Z,11.07
2023-03-26T11:43:55.327Z,11.88
2023-03-26T11:46:23.609Z,7.97
2023-03-26T11:48:57.450Z,9.10
2023-03-26T11:51:32.843Z,11.13
2023-03-26T11:54:00.493Z,14.20
2023-03-26T11:56:33.991Z,13.73
2023-03-26T11:59:17.877Z,12.98
2023-03-26T12:01:52.535Z,8.00
2023-03-26T12:04:33.766Z,12.00
2023-03-26T12:07:13.885Z,8.35
2023-03-26T12:09:55.793Z,12.10
2023-03-26T12:12:26.589Z,14.20
2023-03-26T12:14:53.452Z,11.20
2023-03-26T12:17:34.690Z,11.57
2023-03-26T12:20:02.410Z,10.38
2023-03-26T12:22:43.394Z,13.10
2023-03-26T12:25:25.111Z,10.30
2023-03-26T12:28:05.501Z,9.13
2023-03-26T12:30:37.778Z,12.30
2023-03-26T12:33:05.365Z,14.80
2023-03-26T12:35:35.116Z,17.40
2023-03-26T12:38:22.154Z,9.43
2023-03-26T12:40:49.634Z,7.03
2023-03-26T12:44:54.770Z,9.90
2023-03-26T12:47:56.512Z,9.80
2023-03-26T12:49:18.775Z,11.63
2023-03-26T12:51:58.525Z,9.13
2023-03-26T12:54:36.024Z,7.33
2023-03-26T12:57:18.644Z,11.18
2023-03-26T12:59:45.061Z,11.18
2023-03-26T13:02:39.424Z,9.27
2023-03-26T13:05:23.688Z,11.07
2023-03-26T13:08:12.482Z,10.70
2023-03-26T13:10:57.775Z,12.23
2023-03-26T13:13:58.897Z,7.85
2023-03-26T13:16:53.135Z,17.23
2023-03-26T13:19:37.445Z,10.63
2023-03-26T13:22:25.470Z,6.23
2023-03-26T13:25:30.147Z,9.43
2023-03-26T13:28:10.763Z,9.10
2023-03-26T13:30:44.620Z,4.55
2023-03-26T13:33:38.186Z,8.63
2023-03-26T13:36:24.250Z,8.93
2023-03-26T13:39:24.559Z,5.57
2023-03-26T13:42:16.157Z,6.03
2023-03-26T13:44:52.753Z,7.53
2023-03-26T13:47:36.402Z,6.25
2023-03-26T13:50:30.296Z,8.70
2023-03-26T13:53:06.391Z,8.55
2023-03-26T13:55:47.443Z,5.28
2023-03-26T13:58:17.547Z,6.88
2023-03-26T14:01:07.805Z,6.45
2023-03-26T14:03:49.362Z,7.07
2023-03-26T14:06:33.883Z,3.05
2023-03-26T14:09:11.447Z,7.00
2023-03-26T14:11:51.871Z,5.18
2023-03-26T14:14:37.475Z,8.90
2023-03-26T14:17:17.985Z,4.67
2023-03-26T14:20:05.149Z,4.70
2023-03-26T14:22:44.329Z,7.10
2023-03-26T14:25:13.667Z,5.75
2023-03-26T14:28:19.281Z,6.90
2023-03-26T14:31:08.023Z,7.40
2023-03-26T14:33:34.665Z,9.57
2023-03-26T14:36:17.315Z,7.63
2023-03-26T14:38:50.139Z,5.97
2023-03-26T14:41:33.558Z,7.03
2023-03-26T14:44:09.140Z,5.20
2023-03-26T14:46:56.999Z,2.80
2023-03-26T14:50:04.743Z,6.90
2023-03-26T14:52:47.737Z,4.65
2023-03-26T14:55:35.351Z,7.18
2023-03-26T14:58:29.560Z,4.43
2023-03-26T15:01:08.031Z,4.10
2023-03-26T15:03:58.665Z,8.15
2023-03-26T15:06:45.190Z,7.47
2023-03-26T15:09:29.582Z,14.90
2023-03-26T15:12:13.650Z,5.53
2023-03-26T15:15:26.218Z,4.97
2023-03-26T15:18:11.667Z,8.82
2023-03-26T15:21:19.599Z,12.73
2023-03-26T15:24:07.944Z,8.65
2023-03-26T15:26:46.570Z,3.80
2023-03-26T15:29:42.206Z,2.60
2023-03-26T15:32:40.893Z,7.03
2023-03-26T15:35:16.851Z,4.78
2023-03-26T15:38:11.153Z,8.30
2023-03-26T15:40:50.801Z,5.53
2023-03-26T15:43:21.303Z,6.78
2023-03-26T15:46:24.468Z,6.88
2023-03-26T15:48:57.660Z,5.53
2023-03-26T15:51:47.417Z,7.78
2023-03-26T15:54:29.421Z,14.10
2023-03-26T15:57:08.900Z,6.43
2023-03-26T15:59:59.221Z,7.00
2023-03-26T16:02:50.225Z,6.63
2023-03-26T16:05:22.715Z,9.80
2023-03-26T16:08:04.696Z,4.97
2023-03-26T16:10:55.981Z,10.52
2023-03-26T16:13:22.645Z,8.80
2023-03-26T16:16:09.258Z,8.30
2023-03-26T16:18:43.874Z,6.93
2023-03-26T16:21:30.416Z,5.93
2023-03-26T16:24:07.401Z,5.97
2023-03-26T16:26:54.799Z,6.13
2023-03-26T16:29:22.613Z,6.18
2023-03-26T16:32:17.356Z,4.90
2023-03-26T16:35:12.829Z,12.93
2023-03-26T16:37:50.495Z,6.05
2023-03-26T16:40:17.068Z,7.35
2023-03-26T16:43:01.998Z,5.70
2023-03-26T16:45:37.825Z,4.88
2023-03-26T16:48:23.153Z,6.40
2023-03-26T16:51:18.566Z,6.70
2023-03-26T16:53:45.905Z,4.63
2023-03-26T16:56:16.710Z,5.60
2023-03-26T16:58:48.967Z,6.35
2023-03-26T17:01:42.976Z,4.47
2023-03-26T17:04:23.516Z,7.25
2023-03-26T17:07:13.966Z,9.40
2023-03-26T17:09:59.054Z,4.10
2023-03-26T17:12:47.799Z,9.20
2023-03-26T17:15:47.047Z,8.53
2023-03-26T17:18:27.512Z,2.17
2023-03-26T17:21:12.442Z,5.93
2023-03-26T17:24:04.079Z,3.00
2023-03-26T17:27:01.186Z,3.92
2023-03-26T17:29:51.974Z,5.47
2023-03-26T17:32:21.420Z,4.13
2023-03-26T17:34:50.896Z,6.65
2023-03-26T17:37:17.212Z,6.22
2023-03-26T17:39:43.590Z,5.10
2023-03-26T17:42:15.958Z,5.17
2023-03-26T17:44:51.927Z,4.07
2023-03-26T17:47:26.630Z,5.80
2023-03-26T17:50:04.244Z,6.30
2023-03-26T17:52:48.101Z,4.82
2023-03-26T17:55:19.815Z,8.03
2023-03-26T17:57:52.295Z,6.60
2023-03-26T18:00:26.587Z,6.78
2023-03-26T18:02:57.170Z,2.95
2023-03-26T18:05:28.032Z,6.15
2023-03-26T18:08:01.910Z,6.83
2023-03-26T18:11:02.937Z,7.43
2023-03-26T18:14:06.086Z,3.85
2023-03-26T18:16:45.910Z,7.25
2023-03-26T18:19:21.835Z,8.88
2023-03-26T18:21:59.571Z,7.00
2023-03-26T18:24:37.534Z,7.60
2023-03-26T18:27:22.148Z,6.32
2023-03-26T18:29:57.515Z,4.90
2023-03-26T18:32:33.480Z,7.95
2023-03-26T18:35:13.305Z,7.13
2023-03-26T18:37:40.291Z,5.32
2023-03-26T18:40:16.457Z,4.68
2023-03-26T18:42:52.356Z,6.47
2023-03-26T18:45:27.125Z,3.72
2023-03-26T18:47:56.694Z,1.80
2023-03-26T18:50:27.715Z,5.60
2023-03-26T18:52:57.989Z,4.45
2023-03-26T18:55:27.227Z,6.95
2023-03-26T18:57:53.534Z,6.05
2023-03-26T19:00:25.532Z,7.33
2023-03-26T19:03:03.542Z,9.60
2023-03-26T19:05:32.311Z,5.32
2023-03-26T19:08:03.434Z,10.43
2023-03-26T19:10:32.046Z,7.47
2023-03-26T19:13:01.419Z,4.97
2023-03-26T19:15:31.522Z,6.68
2023-03-26T19:18:07.067Z,5.15
2023-03-26T19:20:40.453Z,4.57
2023-03-26T19:23:09.659Z,6.95
2023-03-26T19:25:42.876Z,12.13
2023-03-26T19:28:17.852Z,7.30
2023-03-26T19:30:44.484Z,6.18
2023-03-26T19:33:18.882Z,3.58
2023-03-26T19:35:51.553Z,9.95
2023-03-26T19:38:29.323Z,3.10
2023-03-26T19:40:57.602Z,6.78
2023-03-26T19:43:25.630Z,5.28
2023-03-26T19:46:00.236Z,3.92
2023-03-26T19:48:45.315Z,8.88
2023-03-26T19:51:19.929Z,7.13
2023-03-26T19:53:53.962Z,3.05
2023-03-26T19:56:21.867Z,3.60
2023-03-26T19:58:49.878Z,7.05
2023-03-26T20:01:23.645Z,7.18
2023-03-26T20:03:59.901Z,5.47
2023-03-26T20:06:42.652Z,3.72
2023-03-26T20:09:11.582Z,11.23
2023-03-26T20:11:39.292Z,2.58
2023-03-26T20:14:14.736Z,8.73
2023-03-26T20:16:42.954Z,5.57
2023-03-26T20:19:10.971Z,7.63
2023-03-26T20:21:41.046Z,5.82
2023-03-26T20:24:14.520Z,6.05
2023-03-26T20:26:40.955Z,4.47
2023-03-26T20:29:07.458Z,3.07
2023-03-26T20:31:34.145Z,1.95
2023-03-26T20:34:00.584Z,4.78
2023-03-26T20:36:32.685Z,10.00
2023-03-26T20:38:59.250Z,5.15
2023-03-26T20:41:26.111Z,4.27
2023-03-26T20:43:52.723Z,3.92
2023-03-26T20:46:24.119Z,4.47
2023-03-26T20:48:57.851Z,2.80
2023-03-26T20:51:24.414Z,7.07
2023-03-26T20:53:50.755Z,10.40
2023-03-26T20:56:19.310Z,5.18
2023-03-26T20:58:50.852Z,5.50
2023-03-26T21:01:24.132Z,17.85
2023-03-26T21:03:50.821Z,4.95
2023-03-26T21:06:17.118Z,5.33
2023-03-26T21:08:44.788Z,3.03
2023-03-26T21:11:26.533Z,7.65
2023-03-26T21:14:01.179Z,5.13
2023-03-26T21:16:27.980Z,5.65
2023-03-26T21:18:54.705Z,6.67
2023-03-26T21:21:52.727Z,5.68
2023-03-26T21:24:32.963Z,2.67
2023-03-26T21:27:28.094Z,9.63
2023-03-26T21:29:55.551Z,7.28
2023-03-26T21:32:22.718Z,3.17
2023-03-26T21:34:58.838Z,5.10
2023-03-26T21:37:26.349Z,10.38
2023-03-26T21:39:52.946Z,2.25
2023-03-26T21:42:19.609Z,6.07
2023-03-26T21:44:46.738Z,6.83
2023-03-26T21:47:13.576Z,4.55
2023-03-26T21:49:40.148Z,5.93
2023-03-26T21:52:06.883Z,4.78
2023-03-26T21:54:33.671Z,5.53
2023-03-26T21:57:06.715Z,4.67
2023-03-26T22:00:00.672Z,2.88
2023-03-26T22:02:52.140Z,7.43
2023-03-26T22:05:31.154Z,4.15
2023-03-26T22:08:01.622Z,5.32
2023-03-26T22:10:28.635Z,8.03
2023-03-26T22:12:55.089Z,8.55
2023-03-26T22:15:21.692Z,6.88
2023-03-26T22:17:54.174Z,7.45
2023-03-26T22:20:25.438Z,2.10
2023-03-26T22:22:53.204Z,17.80
2023-03-26T22:25:21.777Z,4.60
2023-03-26T22:27:50.036Z,5.22
2023-03-26T22:30:17.039Z,5.03
2023-03-26T22:32:44.584Z,4.72
2023-03-26T22:35:11.390Z,5.20
2023-03-26T22:37:37.755Z,4.53
2023-03-26T22:40:09.019Z,6.75
2023-03-26T22:42:36.256Z,6.55
2023-03-26T22:45:03.988Z,3.58
2023-03-26T22:47:30.605Z,5.07
2023-03-26T22:49:57.198Z,8.73
2023-03-26T22:52:23.666Z,2.80
2023-03-26T22:54:50.014Z,4.90
2023-03-26T22:57:16.419Z,3.17
2023-03-26T22:59:42.964Z,3.73
2023-03-26T23:02:11.115Z,2.28
2023-03-26T23:04:37.688Z,2.42
2023-03-26T23:07:05.258Z,3.35
2023-03-26T23:09:31.668Z,4.22
2023-03-26T23:11:58.258Z,3.13
2023-03-26T23:14:24.713Z,7.45
2023-03-26T23:16:51.683Z,2.20
2023-03-26T23:19:18.122Z,3.20
2023-03-26T23:21:44.445Z,7.30
2023-03-26T23:24:10.783Z,6.87
2023-03-26T23:26:49.725Z,2.45
2023-03-26T23:29:17.374Z,3.88
2023-03-26T23:31:43.831Z,2.03
2023-03-26T23:34:10.855Z,2.25
2023-03-26T23:36:37.160Z,3.67
2023-03-26T23:39:04.748Z,5.22
2023-03-26T23:41:31.289Z,6.47
2023-03-26T23:43:57.624Z,3.50
2023-03-26T23:46:30.086Z,3.67
2023-03-26T23:49:01.991Z,2.50
2023-03-26T23:51:30.064Z,2.55
2023-03-26T23:53:56.896Z,3.03
2023-03-26T23:56:23.642Z,3.55
2023-03-26T23:58:50.177Z,2.63
